sensor_id;sensor_type;location;lat;lon;timestamp;temperature;humidity
55365;DHT22;41245;45.384;20.390;2023-01-16T00:04:58;204.80;2252.80
55365;DHT22;41245;45.384;20.390;2023-01-16T03:30:45;204.80;2252.80
55365;DHT22;41245;45.384;20.390;2023-01-16T03:38:24;204.80;2252.80
55365;DHT22;41245;45.384;20.390;2023-01-16T03:51:03;204.90;2252.80
55365;DHT22;41245;45.384;20.390;2023-01-16T04:43:06;179.80;2252.80
55365;DHT22;41245;45.384;20.390;2023-01-16T05:34:14;179.40;2252.80
55365;DHT22;41245;45.384;20.390;2023-01-16T06:08:19;179.20;2252.80
55365;DHT22;41245;45.384;20.390;2023-01-16T06:10:45;154.50;2252.80
55365;DHT22;41245;45.384;20.390;2023-01-16T06:13:11;154.30;2252.80
55365;DHT22;41245;45.384;20.390;2023-01-16T06:15:37;154.30;2252.80
55365;DHT22;41245;45.384;20.390;2023-01-16T06:18:02;154.30;2252.80
55365;DHT22;41245;45.384;20.390;2023-01-16T06:20:28;154.30;2252.80
55365;DHT22;41245;45.384;20.390;2023-01-16T06:22:54;154.40;2252.80
55365;DHT22;41245;45.384;20.390;2023-01-16T06:25:19;154.50;2252.80
55365;DHT22;41245;45.384;20.390;2023-01-16T06:27:52;154.50;2252.80
55365;DHT22;41245;45.384;20.390;2023-01-16T06:30:18;179.20;2252.80
55365;DHT22;41245;45.384;20.390;2023-01-16T07:11:42;179.70;2252.80
55365;DHT22;41245;45.384;20.390;2023-01-16T07:14:08;179.80;2252.80
55365;DHT22;41245;45.384;20.390;2023-01-16T07:16:52;179.70;2252.80
55365;DHT22;41245;45.384;20.390;2023-01-16T07:19:36;179.70;2252.80
55365;DHT22;41245;45.384;20.390;2023-01-16T07:22:20;179.60;2252.80
55365;DHT22;41245;45.384;20.390;2023-01-16T07:25:15;179.60;2252.80
55365;DHT22;41245;45.384;20.390;2023-01-16T07:27:43;179.60;2252.80
55365;DHT22;41245;45.384;20.390;2023-01-16T07:30:13;179.90;2252.80
55365;DHT22;41245;45.384;20.390;2023-01-16T07:32:39;180.00;2252.80
55365;DHT22;41245;45.384;20.390;2023-01-16T07:35:06;180.00;2252.80
55365;DHT22;41245;45.384;20.390;2023-01-16T07:37:32;180.00;2252.80
55365;DHT22;41245;45.384;20.390;2023-01-16T07:39:58;179.90;2252.80
55365;DHT22;41245;45.384;20.390;2023-01-16T07:42:24;179.90;2252.80
55365;DHT22;41245;45.384;20.390;2023-01-16T07:47:15;180.00;2252.80
55365;DHT22;41245;45.384;20.390;2023-01-16T07:59:27;205.00;2252.80
55365;DHT22;41245;45.384;20.390;2023-01-16T08:14:05;205.10;2252.80
55365;DHT22;41245;45.384;20.390;2023-01-16T08:16:32;205.10;2252.80
55365;DHT22;41245;45.384;20.390;2023-01-16T08:18:58;205.10;2252.80
55365;DHT22;41245;45.384;20.390;2023-01-16T08:21:23;205.20;2252.80
55365;DHT22;41245;45.384;20.390;2023-01-16T08:23:50;205.20;2252.80
55365;DHT22;41245;45.384;20.390;2023-01-16T08:26:15;205.20;2252.80
55365;DHT22;41245;45.384;20.390;2023-01-16T08:28:41;205.30;2252.80
55365;DHT22;41245;45.384;20.390;2023-01-16T08:31:11;205.30;2252.80
55365;DHT22;41245;45.384;20.390;2023-01-16T08:33:39;205.30;2252.80
55365;DHT22;41245;45.384;20.390;2023-01-16T08:36:07;205.30;2252.80
55365;DHT22;41245;45.384;20.390;2023-01-16T08:38:33;205.30;2252.80
55365;DHT22;41245;45.384;20.390;2023-01-16T08:40:59;205.40;2252.80
55365;DHT22;41245;45.384;20.390;2023-01-16T08:43:25;205.40;2252.80
55365;DHT22;41245;45.384;20.390;2023-01-16T08:46:20;205.60;2252.80
55365;DHT22;41245;45.384;20.390;2023-01-16T08:49:11;205.70;2252.80
55365;DHT22;41245;45.384;20.390;2023-01-16T08:51:56;205.70;2252.80
55365;DHT22;41245;45.384;20.390;2023-01-16T08:54:22;230.40;2252.80
55365;DHT22;41245;45.384;20.390;2023-01-16T08:56:47;205.70;2252.80
55365;DHT22;41245;45.384;20.390;2023-01-16T08:59:13;205.70;2252.80
55365;DHT22;41245;45.384;20.390;2023-01-16T09:01:40;230.40;2252.80
55365;DHT22;41245;45.384;20.390;2023-01-16T09:04:07;230.50;2252.80
55365;DHT22;41245;45.384;20.390;2023-01-16T09:06:34;230.40;2252.80
55365;DHT22;41245;45.384;20.390;2023-01-16T09:09:03;230.40;2252.80
55365;DHT22;41245;45.384;20.390;2023-01-16T09:11:30;230.40;2252.80
55365;DHT22;41245;45.384;20.390;2023-01-16T09:14:14;230.40;2252.80
55365;DHT22;41245;45.384;20.390;2023-01-16T09:16:40;230.50;2252.80
55365;DHT22;41245;45.384;20.390;2023-01-16T09:19:06;230.40;2252.80
55365;DHT22;41245;45.384;20.390;2023-01-16T09:21:31;205.70;2252.80
55365;DHT22;41245;45.384;20.390;2023-01-16T09:23:57;230.40;2252.80
55365;DHT22;41245;45.384;20.390;2023-01-16T09:26:22;230.40;2252.80
55365;DHT22;41245;45.384;20.390;2023-01-16T09:28:48;205.70;2252.80
55365;DHT22;41245;45.384;20.390;2023-01-16T09:31:14;205.70;2252.80
55365;DHT22;41245;45.384;20.390;2023-01-16T09:33:40;205.60;2252.80
55365;DHT22;41245;45.384;20.390;2023-01-16T09:36:07;205.60;2252.80
55365;DHT22;41245;45.384;20.390;2023-01-16T09:38:33;205.70;2252.80
55365;DHT22;41245;45.384;20.390;2023-01-16T09:40:59;205.70;2252.80
55365;DHT22;41245;45.384;20.390;2023-01-16T09:43:38;230.40;2252.80
55365;DHT22;41245;45.384;20.390;2023-01-16T09:46:16;230.40;2252.80
55365;DHT22;41245;45.384;20.390;2023-01-16T09:48:50;230.40;2252.80
55365;DHT22;41245;45.384;20.390;2023-01-16T09:51:32;230.40;2252.80
55365;DHT22;41245;45.384;20.390;2023-01-16T09:56:47;230.40;2252.80
55365;DHT22;41245;45.384;20.390;2023-01-16T09:59:46;230.40;2252.80
55365;DHT22;41245;45.384;20.390;2023-01-16T10:02:24;230.60;2252.80
55365;DHT22;41245;45.384;20.390;2023-01-16T10:04:52;230.60;2252.80
55365;DHT22;41245;45.384;20.390;2023-01-16T10:15:44;230.80;2252.80
55365;DHT22;41245;45.384;20.390;2023-01-16T10:19:07;230.80;2252.80
55365;DHT22;41245;45.384;20.390;2023-01-16T10:23:48;231.00;2252.80
55365;DHT22;41245;45.384;20.390;2023-01-16T10:31:51;231.10;2252.80
55365;DHT22;41245;45.384;20.390;2023-01-16T10:34:25;231.20;2252.80
55365;DHT22;41245;45.384;20.390;2023-01-16T10:36:56;231.20;2252.80
55365;DHT22;41245;45.384;20.390;2023-01-16T10:39:24;231.30;2252.80
55365;DHT22;41245;45.384;20.390;2023-01-16T10:41:55;231.30;2252.80
55365;DHT22;41245;45.384;20.390;2023-01-16T10:44:50;231.30;2252.80
55365;DHT22;41245;45.384;20.390;2023-01-16T10:47:38;231.30;2252.80
55365;DHT22;41245;45.384;20.390;2023-01-16T10:50:23;256.10;2252.80
55365;DHT22;41245;45.384;20.390;2023-01-16T10:52:50;256.20;2252.80
55365;DHT22;41245;45.384;20.390;2023-01-16T10:55:16;256.10;2252.80
55365;DHT22;41245;45.384;20.390;2023-01-16T10:57:58;256.10;2252.80
55365;DHT22;41245;45.384;20.390;2023-01-16T11:00:31;256.10;2252.80
55365;DHT22;41245;45.384;20.390;2023-01-16T11:03:15;256.20;2252.80
55365;DHT22;41245;45.384;20.390;2023-01-16T11:05:41;256.10;2252.80
55365;DHT22;41245;45.384;20.390;2023-01-16T11:08:17;256.00;2252.80
55365;DHT22;41245;45.384;20.390;2023-01-16T11:10:48;256.10;2252.80
55365;DHT22;41245;45.384;20.390;2023-01-16T11:13:19;256.10;2252.80
55365;DHT22;41245;45.384;20.390;2023-01-16T11:19:15;256.20;2252.80
55365;DHT22;41245;45.384;20.390;2023-01-16T11:21:44;256.30;2252.80
55365;DHT22;41245;45.384;20.390;2023-01-16T11:24:18;256.30;2252.80
55365;DHT22;41245;45.384;20.390;2023-01-16T11:26:51;256.30;2252.80
55365;DHT22;41245;45.384;20.390;2023-01-16T11:29:19;256.20;2252.80
55365;DHT22;41245;45.384;20.390;2023-01-16T11:31:51;256.30;2252.80
55365;DHT22;41245;45.384;20.390;2023-01-16T11:34:20;256.40;2252.80
55365;DHT22;41245;45.384;20.390;2023-01-16T11:36:47;256.30;2252.80
55365;DHT22;41245;45.384;20.390;2023-01-16T11:39:22;256.30;2252.80
55365;DHT22;41245;45.384;20.390;2023-01-16T11:41:51;256.30;2252.80
55365;DHT22;41245;45.384;20.390;2023-01-16T11:44:36;256.30;2252.80
55365;DHT22;41245;45.384;20.390;2023-01-16T11:52:47;256.40;2252.80
55365;DHT22;41245;45.384;20.390;2023-01-16T12:11:14;256.50;2252.80
55365;DHT22;41245;45.384;20.390;2023-01-16T13:22:10;281.80;2278.40
55365;DHT22;41245;45.384;20.390;2023-01-16T13:27:14;256.80;2252.80
55365;DHT22;41245;45.384;20.390;2023-01-16T13:29:53;256.60;2252.80
55365;DHT22;41245;45.384;20.390;2023-01-16T13:34:52;256.20;2252.80
55365;DHT22;41245;45.384;20.390;2023-01-16T13:37:39;256.10;2252.80
55365;DHT22;41245;45.384;20.390;2023-01-16T13:42:41;231.20;2252.80
55365;DHT22;41245;45.384;20.390;2023-01-16T13:45:29;231.00;2252.80
55365;DHT22;41245;45.384;20.390;2023-01-16T13:48:19;231.10;2252.80
55365;DHT22;41245;45.384;20.390;2023-01-16T13:50:50;231.00;2252.80
55365;DHT22;41245;45.384;20.390;2023-01-16T13:53:17;230.90;2252.80
55365;DHT22;41245;45.384;20.390;2023-01-16T13:55:47;230.80;2252.80
55365;DHT22;41245;45.384;20.390;2023-01-16T13:58:19;230.70;2252.80
55365;DHT22;41245;45.384;20.390;2023-01-16T14:00:46;230.80;2252.80
55365;DHT22;41245;45.384;20.390;2023-01-16T14:03:21;230.70;2252.80
55365;DHT22;41245;45.384;20.390;2023-01-16T14:05:50;230.80;2252.80
55365;DHT22;41245;45.384;20.390;2023-01-16T14:11:13;230.70;2252.80
55365;DHT22;41245;45.384;20.390;2023-01-16T14:13:40;230.70;2252.80
55365;DHT22;41245;45.384;20.390;2023-01-16T14:21:38;230.60;2252.80
55365;DHT22;41245;45.384;20.390;2023-01-16T14:24:16;230.60;2252.80
55365;DHT22;41245;45.384;20.390;2023-01-16T14:32:03;230.40;2252.80
55365;DHT22;41245;45.384;20.390;2023-01-16T14:34:39;230.40;2252.80
55365;DHT22;41245;45.384;20.390;2023-01-16T14:40:18;230.50;2252.80
55365;DHT22;41245;45.384;20.390;2023-01-16T14:42:52;230.70;2252.80
55365;DHT22;41245;45.384;20.390;2023-01-16T14:45:41;230.60;2252.80
55365;DHT22;41245;45.384;20.390;2023-01-16T14:48:33;230.70;2252.80
55365;DHT22;41245;45.384;20.390;2023-01-16T14:51:53;230.70;2252.80
55365;DHT22;41245;45.384;20.390;2023-01-16T14:54:39;230.70;2252.80
55365;DHT22;41245;45.384;20.390;2023-01-16T14:57:24;230.70;2252.80
55365;DHT22;41245;45.384;20.390;2023-01-16T15:00:05;230.80;2252.80
55365;DHT22;41245;45.384;20.390;2023-01-16T15:02:55;230.80;2252.80
55365;DHT22;41245;45.384;20.390;2023-01-16T15:05:32;230.70;2252.80
55365;DHT22;41245;45.384;20.390;2023-01-16T22:59:00;231.20;2252.80
55365;DHT22;41245;45.384;20.390;2023-01-16T23:01:26;231.00;2252.80
55365;DHT22;41245;45.384;20.390;2023-01-16T23:06:19;231.20;2252.80
55365;DHT22;41245;45.384;20.390;2023-01-16T23:20:57;231.20;2252.80
55365;DHT22;41245;45.384;20.390;2023-01-16T23:25:49;231.30;2252.80
